Terminal Aerodrome Forecast
Issued by NWS Nashville, TN

Home | Current Version | Previous Version | Text Only | Print | Product List | Glossary On
Versions: 1 2 3 4 5 6 7 8 9 10 11 12 13 14 15 16 17 18 19 20
000
FTUS44 KOHX 191100
TAFBNA
TAF
KBNA 191120Z 1912/2012 04006KT P6SM BKN050
     FM200600 02003KT 6SM -RAPL OVC035=

USA.gov is the U.S. government's official web portal to all federal, state and local government web resources and services.